createdAt,value
2022-08-20T00:01:11.759Z,21.61
2022-08-20T00:06:24.259Z,21.68
2022-08-20T00:11:36.752Z,21.71
2022-08-20T00:16:49.071Z,21.65
2022-08-20T00:22:01.613Z,21.63
2022-08-20T00:27:14.122Z,21.55
2022-08-20T00:32:26.341Z,21.54
2022-08-20T00:37:38.637Z,21.56
2022-08-20T00:42:51.194Z,21.58
2022-08-20T00:48:03.529Z,21.63
2022-08-20T00:53:15.937Z,21.63
2022-08-20T00:58:28.338Z,21.58
2022-08-20T01:03:40.745Z,21.52
2022-08-20T01:08:52.972Z,21.46
2022-08-20T01:14:05.196Z,21.43
2022-08-20T01:19:29.257Z,21.43
2022-08-20T01:24:29.866Z,21.42
2022-08-20T01:29:42.100Z,21.39
2022-08-20T01:34:54.557Z,21.35
2022-08-20T01:40:09.222Z,21.36
2022-08-20T01:45:19.409Z,21.39
2022-08-20T01:50:31.601Z,21.39
2022-08-20T01:55:43.926Z,21.36
2022-08-20T02:00:56.162Z,21.37
2022-08-20T02:06:08.368Z,21.38
2022-08-20T02:16:32.896Z,21.44
2022-08-20T02:21:45.711Z,21.47
2022-08-20T02:26:58.085Z,21.48
2022-08-20T02:32:23.756Z,21.44
2022-08-20T02:37:22.732Z,21.41
2022-08-20T02:42:35.062Z,21.38
2022-08-20T02:47:47.256Z,21.36
2022-08-20T02:52:59.489Z,21.35
2022-08-20T02:58:11.702Z,21.35
2022-08-20T03:03:24.036Z,21.3
2022-08-20T03:08:36.158Z,21.27
2022-08-20T03:13:48.408Z,21.2
2022-08-20T03:19:00.599Z,21.16
2022-08-20T03:24:12.882Z,21.1
2022-08-20T03:29:25.040Z,21.1
2022-08-20T03:34:37.453Z,21.12
2022-08-20T03:39:49.581Z,21.18
2022-08-20T03:45:01.890Z,21.19
2022-08-20T03:50:14.841Z,21.18
2022-08-20T03:55:26.445Z,21.18
2022-08-20T04:00:38.643Z,21.18
2022-08-20T04:05:51.095Z,21.23
2022-08-20T04:11:03.279Z,21.24
2022-08-20T04:16:15.517Z,21.26
2022-08-20T04:21:27.918Z,21.29
2022-08-20T04:26:40.289Z,21.27
2022-08-20T04:31:52.522Z,21.27
2022-08-20T04:37:04.962Z,21.23
2022-08-20T04:42:17.262Z,21.25
2022-08-20T04:47:34.358Z,21.23
2022-08-20T04:52:41.834Z,21.26
2022-08-20T04:57:54.223Z,21.29
2022-08-20T05:03:06.622Z,21.33
2022-08-20T05:08:19.937Z,21.34
2022-08-20T05:13:31.249Z,21.33
2022-08-20T05:18:43.628Z,21.38
2022-08-20T05:23:55.954Z,21.38
2022-08-20T05:29:08.310Z,21.43
2022-08-20T05:34:20.503Z,21.38
2022-08-20T05:39:36.872Z,21.39
2022-08-20T05:44:45.184Z,21.44
2022-08-20T05:49:57.595Z,21.49
2022-08-20T05:55:09.890Z,21.51
2022-08-20T06:00:22.148Z,21.54
2022-08-20T06:05:34.325Z,21.54
2022-08-20T06:10:46.745Z,21.55
2022-08-20T06:15:59.282Z,21.61
2022-08-20T06:21:11.401Z,21.61
2022-08-20T06:26:24.352Z,21.6
2022-08-20T06:31:36.182Z,21.64
2022-08-20T06:36:48.573Z,21.7
2022-08-20T06:42:00.794Z,21.76
2022-08-20T06:47:13.132Z,21.82
2022-08-20T06:52:28.642Z,21.86
2022-08-20T06:57:37.561Z,21.82
2022-08-20T07:02:50.043Z,21.81
2022-08-20T07:08:02.062Z,21.73
2022-08-20T07:13:14.339Z,21.69
2022-08-20T07:18:27.974Z,21.63
2022-08-20T07:23:38.871Z,21.53
2022-08-20T07:28:51.213Z,21.42
2022-08-20T07:34:03.612Z,21.39
2022-08-20T07:39:15.840Z,21.32
2022-08-20T07:44:29.164Z,21.35
2022-08-20T07:49:40.511Z,21.45
2022-08-20T07:54:52.925Z,21.51
2022-08-20T08:00:05.327Z,21.53
2022-08-20T08:05:17.487Z,21.55
2022-08-20T08:10:29.877Z,21.48
2022-08-20T08:15:42.117Z,21.45
2022-08-20T08:20:54.450Z,21.38
2022-08-20T08:26:06.722Z,21.36
2022-08-20T08:31:19.189Z,21.36
2022-08-20T08:36:31.415Z,21.37
2022-08-20T08:41:44.026Z,21.48
2022-08-20T08:46:56.319Z,21.53
2022-08-20T08:52:08.488Z,21.64
2022-08-20T08:57:20.784Z,21.73
2022-08-20T09:02:33.313Z,21.78
2022-08-20T09:07:45.487Z,21.72
2022-08-20T09:12:57.859Z,21.64
2022-08-20T09:18:10.085Z,21.67
2022-08-20T09:23:22.513Z,21.63
2022-08-20T09:28:35.244Z,21.67
2022-08-20T09:33:47.326Z,21.68
2022-08-20T09:38:59.586Z,21.71
2022-08-20T09:44:11.851Z,21.73
2022-08-20T09:49:24.258Z,21.89
2022-08-20T09:54:36.662Z,21.96
2022-08-20T09:59:48.883Z,22.02
2022-08-20T10:05:01.324Z,22.11
2022-08-20T10:10:13.787Z,22.29
2022-08-20T10:15:26.044Z,22.47
2022-08-20T10:25:50.741Z,22.7
2022-08-20T10:31:03.238Z,22.98
2022-08-20T10:36:15.660Z,23.17
2022-08-20T10:41:28.087Z,23.35
2022-08-20T10:46:40.421Z,23.48
2022-08-20T10:51:52.759Z,23.79
2022-08-20T10:57:05.177Z,23.98
2022-08-20T11:02:17.720Z,23.95
2022-08-20T11:07:49.679Z,23.94
2022-08-20T11:12:44.733Z,23.98
2022-08-20T11:17:54.769Z,24.08
2022-08-20T11:23:07.196Z,24.03
2022-08-20T11:28:30.936Z,23.8
2022-08-20T11:33:31.824Z,23.81
2022-08-20T11:38:44.271Z,23.82
2022-08-20T11:44:17.768Z,23.67
2022-08-20T11:49:08.701Z,23.46
2022-08-20T11:54:21.213Z,23.31
2022-08-20T11:59:33.543Z,23.25
2022-08-20T12:04:45.917Z,23.08
2022-08-20T12:09:58.115Z,22.89
2022-08-20T12:15:10.418Z,22.81
2022-08-20T12:20:22.845Z,22.88
2022-08-20T12:25:35.013Z,22.88
2022-08-20T12:30:47.376Z,22.86
2022-08-20T12:36:00.178Z,22.81
2022-08-20T12:41:12.497Z,22.83
2022-08-20T12:46:24.572Z,22.76
2022-08-20T12:51:36.785Z,22.74
2022-08-20T12:56:49.001Z,22.78
2022-08-20T13:02:09.268Z,22.71
2022-08-20T13:07:13.948Z,22.69
2022-08-20T13:12:26.134Z,22.64
2022-08-20T13:17:39.570Z,22.51
2022-08-20T13:22:50.840Z,22.34
2022-08-20T13:28:03.105Z,22.26
2022-08-20T13:33:15.374Z,22.21
2022-08-20T13:38:27.818Z,22.11
2022-08-20T13:43:40.083Z,22.07
2022-08-20T13:48:52.407Z,21.97
2022-08-20T13:54:04.676Z,21.9
2022-08-20T13:59:17.213Z,21.94
2022-08-20T14:04:29.519Z,22.02
2022-08-20T14:09:41.893Z,22.06
2022-08-20T14:14:53.957Z,22.15
2022-08-20T14:20:06.349Z,22.29
2022-08-20T14:25:18.841Z,22.4
2022-08-20T14:30:31.090Z,22.4
2022-08-20T14:35:44.059Z,22.43
2022-08-20T14:40:56.335Z,22.42
2022-08-20T14:46:08.926Z,22.47
2022-08-20T14:51:21.332Z,22.55
2022-08-20T14:56:34.095Z,22.39
2022-08-20T15:01:46.345Z,22.3
2022-08-20T15:06:59.087Z,22.25
2022-08-20T15:12:11.321Z,22.19
2022-08-20T15:17:23.575Z,22.09
2022-08-20T15:22:36.194Z,22.11
2022-08-20T15:27:48.454Z,22.13
2022-08-20T15:33:01.360Z,22.15
2022-08-20T15:38:13.154Z,22.18
2022-08-20T15:43:25.661Z,22.23
2022-08-20T15:48:38.034Z,22.34
2022-08-20T15:53:50.338Z,22.31
2022-08-20T15:59:02.642Z,22.23
2022-08-20T16:04:15.102Z,22.17
2022-08-20T16:09:27.480Z,22.22
2022-08-20T16:14:39.796Z,22.23
2022-08-20T16:19:52.173Z,22.25
2022-08-20T16:25:04.325Z,22.19
2022-08-20T16:30:20.720Z,22.14
2022-08-20T16:35:30.246Z,22.07
2022-08-20T16:40:41.789Z,22.07
2022-08-20T16:45:54.020Z,22.06
2022-08-20T16:51:06.338Z,22.03
2022-08-20T16:56:18.658Z,22.06
2022-08-20T17:01:31.036Z,22.07
2022-08-20T17:06:43.483Z,22.07
2022-08-20T17:11:55.906Z,22.09
2022-08-20T17:17:08.269Z,22.13
2022-08-20T17:22:20.851Z,22.18
2022-08-20T17:27:33.212Z,22.19
2022-08-20T17:32:45.453Z,22.17
2022-08-20T17:37:57.968Z,22.15
2022-08-20T17:43:10.379Z,22.15
2022-08-20T17:48:22.612Z,22.12
2022-08-20T17:53:35.105Z,22
2022-08-20T17:58:52.527Z,21.94
2022-08-20T18:03:59.922Z,21.81
2022-08-20T18:09:12.911Z,21.66
2022-08-20T18:14:25.456Z,21.53
2022-08-20T18:19:38.209Z,21.43
2022-08-20T18:24:50.696Z,21.38
2022-08-20T18:30:03.287Z,21.36
2022-08-20T18:35:15.883Z,21.38
2022-08-20T18:40:28.371Z,21.39
2022-08-20T18:45:41.018Z,21.39
2022-08-20T18:50:53.480Z,21.37
2022-08-20T18:56:05.883Z,21.31
2022-08-20T19:01:18.427Z,21.31
2022-08-20T19:06:30.619Z,21.33
2022-08-20T19:11:43.046Z,21.36
2022-08-20T19:16:55.395Z,21.35
2022-08-20T19:22:07.708Z,21.36
2022-08-20T19:27:20.234Z,21.35
2022-08-20T19:32:32.670Z,21.35
2022-08-20T19:37:51.404Z,21.32
2022-08-20T19:42:58.590Z,21.3
2022-08-20T19:48:10.801Z,21.27
2022-08-20T19:53:23.687Z,21.27
2022-08-20T19:58:35.500Z,21.25
2022-08-20T20:03:47.849Z,21.26
2022-08-20T20:09:00.451Z,21.24
2022-08-20T20:14:12.777Z,21.14
2022-08-20T20:19:27.035Z,21.08
2022-08-20T20:24:37.429Z,21.03
2022-08-20T20:29:49.642Z,21
2022-08-20T20:35:02.060Z,20.97
2022-08-20T20:40:19.166Z,20.97
2022-08-20T20:45:27.024Z,20.95
2022-08-20T20:50:39.540Z,20.95
2022-08-20T20:55:51.864Z,20.95
2022-08-20T21:01:04.289Z,20.92
2022-08-20T21:06:16.707Z,20.95
2022-08-20T21:11:28.928Z,20.97
2022-08-20T21:16:41.253Z,20.95
2022-08-20T21:21:53.779Z,20.95
2022-08-20T21:27:06.152Z,20.9
2022-08-20T21:32:18.528Z,20.89
2022-08-20T21:37:30.963Z,20.93
2022-08-20T21:42:44.144Z,20.91
2022-08-20T21:47:56.017Z,20.9
2022-08-20T21:53:12.463Z,20.87
2022-08-20T21:58:20.885Z,20.77
2022-08-20T22:03:33.091Z,20.71
2022-08-20T22:08:45.575Z,20.67
2022-08-20T22:13:57.958Z,20.63
2022-08-20T22:19:14.046Z,20.63
2022-08-20T22:24:22.583Z,20.64
2022-08-20T22:29:34.703Z,20.67
2022-08-20T22:34:46.988Z,20.72
2022-08-20T22:39:59.501Z,20.73
2022-08-20T22:45:14.590Z,20.74
2022-08-20T22:50:24.335Z,20.75
2022-08-20T22:55:36.554Z,20.76
2022-08-20T23:00:49.090Z,20.79
2022-08-20T23:06:01.344Z,20.8
2022-08-20T23:11:13.905Z,20.8
2022-08-20T23:16:26.216Z,20.85
2022-08-20T23:21:38.658Z,20.89
2022-08-20T23:26:52.608Z,20.92
2022-08-20T23:32:03.398Z,20.94
2022-08-20T23:37:15.937Z,20.96
2022-08-20T23:42:28.453Z,20.97
2022-08-20T23:47:40.681Z,20.96
2022-08-20T23:52:53.014Z,20.95
2022-08-20T23:58:05.441Z,20.91
